Date,TemperatureHighF,TemperatureAvgF,TemperatureLowF,DewpointHighF,DewpointAvgF,DewpointLowF,HumidityHigh,HumidityAvg,HumidityLow,PressureMaxIn,PressureMinIn,WindSpeedMaxMPH,WindSpeedAvgMPH,GustSpeedMaxMPH,PrecipitationSumIn
2014-3-1,40,30,18,32,23,10,95,76,56,30.33,30.05,9,4,0,0.00
2014-3-2,51,39,28,36,33,27,98,81,49,30.06,29.83,9,3,0,0.11
2014-3-3,33,18,12,32,15,7,94,86,81,30.21,29.86,99,8,0,0.04
2014-3-4,29,20,9,20,13,2,97,75,61,30.29,30.13,10,5,0,0.00
2014-3-5,38,32,20,28,23,15,92,69,55,30.25,30.05,12,7,0,0.10
2014-3-6,31,28,24,26,20,15,82,71,60,30.46,30.26,19,11,0,0.00
2014-3-7,37,34,32,32,31,25,94,87,78,30.26,29.69,19,11,0,0.00
2014-3-8,60,45,32,39,34,30,99,69,41,29.74,29.61,14,5,0,0.00
2014-3-9,48,42,35,37,29,21,93,63,39,29.86,29.72,14,6,0,0.00
2014-3-10,55,43,33,39,30,21,93,63,44,29.83,29.50,9,4,0,0.00
2014-3-11,66,50,38,45,39,33,90,69,42,29.56,29.46,10,3,0,0.00
2014-3-12,53,46,39,51,43,34,97,89,78,29.55,28.92,20,7,0,0.31
2014-3-13,37,27,20,32,11,6,82,50,34,30.04,29.09,23,13,0,0.01
2014-3-14,42,33,21,35,22,9,79,65,51,30.18,29.87,22,10,0,0.00
2014-3-15,66,52,40,40,34,27,85,54,33,29.92,29.69,125,9,0,0.00
2014-3-16,49,38,29,28,23,16,87,57,28,30.09,29.91,14,6,0,0.00
2014-3-17,31,28,25,28,24,20,97,84,67,30.03,29.91,20,10,0,0.00
2014-3-18,39,35,31,32,28,22,83,75,67,30.17,29.99,20,14,0,0.00
2014-3-19,50,42,37,49,38,32,98,88,82,30.16,29.71,19,11,0,0.45
2014-3-20,60,48,38,48,38,28,98,69,38,29.85,29.66,14,6,0,0.00
2014-3-21,58,44,34,36,29,27,87,56,35,29.96,29.85,14,5,0,0.00
2014-3-22,71,51,36,44,38,32,96,66,36,29.95,29.67,18,6,0,0.00
2014-3-23,50,42,31,32,26,13,70,54,42,30.01,29.85,11,6,0,0.00
2014-3-24,41,30,21,17,10,7,72,45,29,30.19,30.02,14,6,0,0.00
2014-3-25,40,31,22,31,24,15,98,77,50,30.09,29.72,100,8,0,0.00
2014-3-26,37,32,27,29,19,10,95,64,36,30.17,29.65,20,10,0,0.00
2014-3-27,44,33,20,31,19,8,75,56,31,30.36,30.17,15,7,0,0.00
2014-3-28,53,46,38,46,41,32,89,82,76,30.20,29.93,18,12,0,0.01
2014-3-29,52,47,44,52,46,43,99,96,89,30.02,29.49,18,9,0,2.13
2014-3-30,51,48,41,51,47,40,99,97,94,29.53,29.29,17,7,0,0.43
2014-3-31,56,44,37,40,37,34,96,78,52,29.96,29.54,19,8,0,0.08